Terminal Aerodrome Forecast
Issued by NWS

Home | Current Version | Previous Version | Text Only | Print | Product List | Glossary On
Versions: 1 2 3 4 5 6 7 8 9 10 11 12 13 14 15 16 17 18 19 20 21 22 23 24 25
636
FTUS45 KGJT 051724
TAFRIL
TAF
KRIL 051724Z 0518/0618 27003KT P6SM FEW110 BKN250
     FM052100 25006KT P6SM SCT100 BKN250
     FM052300 22009G15KT P6SM BKN250
     FM060700 15005KT P6SM BKN250
     FM061500 23005KT P6SM BKN150=

USA.gov is the U.S. government's official web portal to all federal, state and local government web resources and services.